sensor_id;sensor_type;location;lat;lon;timestamp;P1;durP1;ratioP1;P2;durP2;ratioP2
38937;SDS011;24727;51.974;20.868;2023-08-20T00:00:48;17.88;;;15.73;;
38937;SDS011;24727;51.974;20.868;2023-08-20T00:03:14;17.85;;;15.98;;
38937;SDS011;24727;51.974;20.868;2023-08-20T00:05:40;17.38;;;15.43;;
38937;SDS011;24727;51.974;20.868;2023-08-20T00:08:13;15.70;;;14.20;;
38937;SDS011;24727;51.974;20.868;2023-08-20T00:10:41;16.85;;;15.13;;
38937;SDS011;24727;51.974;20.868;2023-08-20T00:13:07;16.30;;;14.68;;
38937;SDS011;24727;51.974;20.868;2023-08-20T00:15:33;17.35;;;15.70;;
38937;SDS011;24727;51.974;20.868;2023-08-20T00:17:59;18.38;;;16.48;;
38937;SDS011;24727;51.974;20.868;2023-08-20T00:20:26;18.73;;;15.77;;
38937;SDS011;24727;51.974;20.868;2023-08-20T00:22:54;12.77;;;11.63;;
38937;SDS011;24727;51.974;20.868;2023-08-20T00:25:20;16.23;;;14.63;;
38937;SDS011;24727;51.974;20.868;2023-08-20T00:27:46;19.10;;;15.23;;
38937;SDS011;24727;51.974;20.868;2023-08-20T00:30:12;17.85;;;15.98;;
38937;SDS011;24727;51.974;20.868;2023-08-20T00:32:39;19.98;;;14.88;;
38937;SDS011;24727;51.974;20.868;2023-08-20T00:35:11;18.73;;;16.33;;
38937;SDS011;24727;51.974;20.868;2023-08-20T00:37:37;17.92;;;16.25;;
38937;SDS011;24727;51.974;20.868;2023-08-20T00:40:10;15.38;;;13.85;;
38937;SDS011;24727;51.974;20.868;2023-08-20T00:42:37;14.35;;;12.85;;
38937;SDS011;24727;51.974;20.868;2023-08-20T00:45:05;15.25;;;13.65;;
38937;SDS011;24727;51.974;20.868;2023-08-20T00:47:31;16.88;;;15.20;;
38937;SDS011;24727;51.974;20.868;2023-08-20T00:49:57;16.50;;;14.60;;
38937;SDS011;24727;51.974;20.868;2023-08-20T00:52:24;18.90;;;16.70;;
38937;SDS011;24727;51.974;20.868;2023-08-20T00:54:50;15.52;;;14.13;;
38937;SDS011;24727;51.974;20.868;2023-08-20T00:57:17;15.43;;;13.75;;
38937;SDS011;24727;51.974;20.868;2023-08-20T00:59:44;15.88;;;14.38;;
38937;SDS011;24727;51.974;20.868;2023-08-20T01:02:14;16.80;;;15.20;;
38937;SDS011;24727;51.974;20.868;2023-08-20T01:04:43;16.13;;;14.63;;
38937;SDS011;24727;51.974;20.868;2023-08-20T01:07:28;17.25;;;15.55;;
38937;SDS011;24727;51.974;20.868;2023-08-20T01:10:03;17.13;;;15.52;;
38937;SDS011;24727;51.974;20.868;2023-08-20T01:12:36;16.90;;;15.10;;
38937;SDS011;24727;51.974;20.868;2023-08-20T01:15:04;18.77;;;16.10;;
38937;SDS011;24727;51.974;20.868;2023-08-20T01:17:30;16.25;;;14.57;;
38937;SDS011;24727;51.974;20.868;2023-08-20T01:19:56;16.90;;;15.07;;
38937;SDS011;24727;51.974;20.868;2023-08-20T01:25:09;17.17;;;15.35;;
38937;SDS011;24727;51.974;20.868;2023-08-20T01:30:34;19.08;;;16.23;;
38937;SDS011;24727;51.974;20.868;2023-08-20T01:33:02;17.38;;;15.18;;
38937;SDS011;24727;51.974;20.868;2023-08-20T01:35:28;18.58;;;14.32;;
38937;SDS011;24727;51.974;20.868;2023-08-20T01:37:55;15.80;;;14.23;;
38937;SDS011;24727;51.974;20.868;2023-08-20T01:40:22;16.75;;;15.05;;
38937;SDS011;24727;51.974;20.868;2023-08-20T01:42:48;18.55;;;16.70;;
38937;SDS011;24727;51.974;20.868;2023-08-20T01:45:14;19.00;;;17.10;;
38937;SDS011;24727;51.974;20.868;2023-08-20T01:47:42;17.40;;;15.68;;
38937;SDS011;24727;51.974;20.868;2023-08-20T01:50:08;14.23;;;12.73;;
38937;SDS011;24727;51.974;20.868;2023-08-20T01:52:35;16.30;;;14.60;;
38937;SDS011;24727;51.974;20.868;2023-08-20T01:55:01;16.95;;;15.32;;
38937;SDS011;24727;51.974;20.868;2023-08-20T01:57:28;16.15;;;13.93;;
38937;SDS011;24727;51.974;20.868;2023-08-20T01:59:54;15.95;;;13.05;;
38937;SDS011;24727;51.974;20.868;2023-08-20T02:02:21;16.55;;;14.85;;
38937;SDS011;24727;51.974;20.868;2023-08-20T02:04:46;17.13;;;15.43;;
38937;SDS011;24727;51.974;20.868;2023-08-20T02:07:14;17.10;;;15.43;;
38937;SDS011;24727;51.974;20.868;2023-08-20T02:09:39;17.88;;;15.05;;
38937;SDS011;24727;51.974;20.868;2023-08-20T02:12:06;15.85;;;14.20;;
38937;SDS011;24727;51.974;20.868;2023-08-20T02:14:33;16.67;;;14.95;;
38937;SDS011;24727;51.974;20.868;2023-08-20T02:17:03;15.90;;;13.57;;
38937;SDS011;24727;51.974;20.868;2023-08-20T02:19:30;15.00;;;13.50;;
38937;SDS011;24727;51.974;20.868;2023-08-20T02:21:57;10.88;;;9.88;;
38937;SDS011;24727;51.974;20.868;2023-08-20T02:24:24;14.45;;;12.93;;
38937;SDS011;24727;51.974;20.868;2023-08-20T02:26:50;13.93;;;12.52;;
38937;SDS011;24727;51.974;20.868;2023-08-20T02:29:16;14.95;;;13.48;;
38937;SDS011;24727;51.974;20.868;2023-08-20T02:31:42;16.02;;;14.52;;
38937;SDS011;24727;51.974;20.868;2023-08-20T02:34:09;14.52;;;13.13;;
38937;SDS011;24727;51.974;20.868;2023-08-20T02:36:36;15.55;;;14.02;;
38937;SDS011;24727;51.974;20.868;2023-08-20T02:39:02;15.40;;;13.88;;
38937;SDS011;24727;51.974;20.868;2023-08-20T02:41:33;19.15;;;13.30;;
38937;SDS011;24727;51.974;20.868;2023-08-20T02:44:01;14.95;;;13.35;;
38937;SDS011;24727;51.974;20.868;2023-08-20T02:46:30;16.58;;;14.88;;
38937;SDS011;24727;51.974;20.868;2023-08-20T02:48:57;16.42;;;14.82;;
38937;SDS011;24727;51.974;20.868;2023-08-20T02:51:23;14.85;;;13.35;;
38937;SDS011;24727;51.974;20.868;2023-08-20T02:53:49;18.20;;;14.52;;
38937;SDS011;24727;51.974;20.868;2023-08-20T02:56:18;15.30;;;13.70;;
38937;SDS011;24727;51.974;20.868;2023-08-20T02:58:44;14.35;;;12.75;;
38937;SDS011;24727;51.974;20.868;2023-08-20T03:01:22;19.70;;;14.85;;
38937;SDS011;24727;51.974;20.868;2023-08-20T03:03:49;12.18;;;10.80;;
38937;SDS011;24727;51.974;20.868;2023-08-20T03:06:16;15.93;;;14.35;;
38937;SDS011;24727;51.974;20.868;2023-08-20T03:08:42;16.83;;;15.18;;
38937;SDS011;24727;51.974;20.868;2023-08-20T03:11:08;15.70;;;14.20;;
38937;SDS011;24727;51.974;20.868;2023-08-20T03:13:35;16.52;;;14.80;;
38937;SDS011;24727;51.974;20.868;2023-08-20T03:16:08;15.68;;;14.25;;
38937;SDS011;24727;51.974;20.868;2023-08-20T03:18:36;17.42;;;15.55;;
38937;SDS011;24727;51.974;20.868;2023-08-20T03:21:02;17.13;;;15.50;;
38937;SDS011;24727;51.974;20.868;2023-08-20T03:23:29;15.88;;;14.43;;
38937;SDS011;24727;51.974;20.868;2023-08-20T03:25:59;16.33;;;14.57;;
38937;SDS011;24727;51.974;20.868;2023-08-20T03:28:25;17.45;;;15.82;;
38937;SDS011;24727;51.974;20.868;2023-08-20T03:30:51;18.25;;;16.45;;
38937;SDS011;24727;51.974;20.868;2023-08-20T03:33:17;20.48;;;16.58;;
38937;SDS011;24727;51.974;20.868;2023-08-20T03:35:45;18.55;;;16.55;;
38937;SDS011;24727;51.974;20.868;2023-08-20T03:38:11;20.25;;;16.67;;
38937;SDS011;24727;51.974;20.868;2023-08-20T03:40:37;18.98;;;16.98;;
38937;SDS011;24727;51.974;20.868;2023-08-20T03:43:03;20.30;;;17.40;;
38937;SDS011;24727;51.974;20.868;2023-08-20T03:45:29;18.77;;;16.98;;
38937;SDS011;24727;51.974;20.868;2023-08-20T03:47:57;19.52;;;17.42;;
38937;SDS011;24727;51.974;20.868;2023-08-20T03:50:23;18.20;;;16.38;;
38937;SDS011;24727;51.974;20.868;2023-08-20T03:52:50;18.73;;;16.80;;
38937;SDS011;24727;51.974;20.868;2023-08-20T03:55:15;15.27;;;13.68;;
38937;SDS011;24727;51.974;20.868;2023-08-20T03:57:42;13.32;;;12.05;;
38937;SDS011;24727;51.974;20.868;2023-08-20T04:00:09;14.75;;;13.32;;
38937;SDS011;24727;51.974;20.868;2023-08-20T04:02:36;20.00;;;16.92;;
38937;SDS011;24727;51.974;20.868;2023-08-20T04:05:02;17.63;;;15.82;;
38937;SDS011;24727;51.974;20.868;2023-08-20T04:07:30;15.52;;;13.93;;
38937;SDS011;24727;51.974;20.868;2023-08-20T04:09:56;17.00;;;15.13;;
38937;SDS011;24727;51.974;20.868;2023-08-20T04:12:22;16.52;;;14.93;;
38937;SDS011;24727;51.974;20.868;2023-08-20T04:14:48;16.98;;;15.27;;
38937;SDS011;24727;51.974;20.868;2023-08-20T04:17:14;16.60;;;14.93;;
38937;SDS011;24727;51.974;20.868;2023-08-20T04:19:40;15.75;;;14.25;;
38937;SDS011;24727;51.974;20.868;2023-08-20T04:22:06;15.38;;;13.85;;
38937;SDS011;24727;51.974;20.868;2023-08-20T04:24:32;16.25;;;14.75;;
38937;SDS011;24727;51.974;20.868;2023-08-20T04:26:58;17.00;;;15.40;;
38937;SDS011;24727;51.974;20.868;2023-08-20T04:29:23;16.90;;;15.05;;
38937;SDS011;24727;51.974;20.868;2023-08-20T04:31:49;16.83;;;15.23;;
38937;SDS011;24727;51.974;20.868;2023-08-20T04:34:15;16.55;;;14.95;;
38937;SDS011;24727;51.974;20.868;2023-08-20T04:36:41;16.80;;;15.15;;
38937;SDS011;24727;51.974;20.868;2023-08-20T04:39:08;17.55;;;15.45;;
38937;SDS011;24727;51.974;20.868;2023-08-20T04:41:35;17.00;;;15.27;;
38937;SDS011;24727;51.974;20.868;2023-08-20T04:44:01;17.73;;;16.02;;
38937;SDS011;24727;51.974;20.868;2023-08-20T04:46:27;16.60;;;14.02;;
38937;SDS011;24727;51.974;20.868;2023-08-20T04:48:53;17.90;;;16.15;;
38937;SDS011;24727;51.974;20.868;2023-08-20T04:51:20;18.48;;;16.73;;
38937;SDS011;24727;51.974;20.868;2023-08-20T04:53:46;17.50;;;15.90;;
38937;SDS011;24727;51.974;20.868;2023-08-20T04:56:12;22.40;;;16.50;;
38937;SDS011;24727;51.974;20.868;2023-08-20T04:58:38;17.33;;;15.73;;
38937;SDS011;24727;51.974;20.868;2023-08-20T05:01:04;21.10;;;16.35;;
38937;SDS011;24727;51.974;20.868;2023-08-20T05:03:31;18.25;;;16.52;;
38937;SDS011;24727;51.974;20.868;2023-08-20T05:05:57;17.92;;;16.25;;
38937;SDS011;24727;51.974;20.868;2023-08-20T05:08:23;17.83;;;16.10;;
38937;SDS011;24727;51.974;20.868;2023-08-20T05:10:50;18.20;;;15.95;;
38937;SDS011;24727;51.974;20.868;2023-08-20T05:13:16;17.40;;;15.75;;
38937;SDS011;24727;51.974;20.868;2023-08-20T05:15:43;17.65;;;15.95;;
38937;SDS011;24727;51.974;20.868;2023-08-20T05:18:11;18.25;;;16.55;;
38937;SDS011;24727;51.974;20.868;2023-08-20T05:20:39;19.23;;;17.10;;
38937;SDS011;24727;51.974;20.868;2023-08-20T05:23:06;17.85;;;16.10;;
38937;SDS011;24727;51.974;20.868;2023-08-20T05:25:33;18.35;;;16.55;;
38937;SDS011;24727;51.974;20.868;2023-08-20T05:27:59;21.08;;;16.88;;
38937;SDS011;24727;51.974;20.868;2023-08-20T05:30:26;19.17;;;17.30;;
38937;SDS011;24727;51.974;20.868;2023-08-20T05:32:52;18.38;;;16.52;;
38937;SDS011;24727;51.974;20.868;2023-08-20T05:35:18;18.45;;;16.70;;
38937;SDS011;24727;51.974;20.868;2023-08-20T05:37:45;19.38;;;17.05;;
38937;SDS011;24727;51.974;20.868;2023-08-20T05:40:11;18.92;;;16.48;;
38937;SDS011;24727;51.974;20.868;2023-08-20T05:42:37;19.42;;;16.55;;
38937;SDS011;24727;51.974;20.868;2023-08-20T05:45:04;17.85;;;16.05;;
38937;SDS011;24727;51.974;20.868;2023-08-20T05:47:30;17.70;;;15.95;;
38937;SDS011;24727;51.974;20.868;2023-08-20T05:49:56;17.45;;;15.95;;
38937;SDS011;24727;51.974;20.868;2023-08-20T05:52:22;17.13;;;15.63;;
38937;SDS011;24727;51.974;20.868;2023-08-20T05:54:48;16.25;;;14.75;;
38937;SDS011;24727;51.974;20.868;2023-08-20T05:57:14;17.08;;;15.02;;
38937;SDS011;24727;51.974;20.868;2023-08-20T05:59:40;18.25;;;14.65;;
38937;SDS011;24727;51.974;20.868;2023-08-20T06:02:06;15.10;;;13.70;;
38937;SDS011;24727;51.974;20.868;2023-08-20T06:04:32;17.42;;;14.68;;
38937;SDS011;24727;51.974;20.868;2023-08-20T06:06:58;15.95;;;14.45;;
38937;SDS011;24727;51.974;20.868;2023-08-20T06:09:30;15.98;;;14.43;;
38937;SDS011;24727;51.974;20.868;2023-08-20T06:14:23;15.40;;;13.85;;
38937;SDS011;24727;51.974;20.868;2023-08-20T06:16:50;15.23;;;13.63;;
38937;SDS011;24727;51.974;20.868;2023-08-20T06:19:16;15.15;;;13.57;;
38937;SDS011;24727;51.974;20.868;2023-08-20T06:21:43;16.17;;;14.48;;
38937;SDS011;24727;51.974;20.868;2023-08-20T06:24:09;15.85;;;14.18;;
38937;SDS011;24727;51.974;20.868;2023-08-20T06:26:42;14.05;;;12.85;;
38937;SDS011;24727;51.974;20.868;2023-08-20T06:29:09;16.30;;;13.13;;
38937;SDS011;24727;51.974;20.868;2023-08-20T06:31:35;14.23;;;12.73;;
38937;SDS011;24727;51.974;20.868;2023-08-20T06:34:02;17.38;;;14.73;;
38937;SDS011;24727;51.974;20.868;2023-08-20T06:36:28;16.55;;;14.93;;
38937;SDS011;24727;51.974;20.868;2023-08-20T06:38:54;19.80;;;17.80;;
38937;SDS011;24727;51.974;20.868;2023-08-20T06:41:22;18.65;;;14.73;;
38937;SDS011;24727;51.974;20.868;2023-08-20T06:43:48;18.55;;;16.45;;
38937;SDS011;24727;51.974;20.868;2023-08-20T06:46:21;18.25;;;16.55;;
38937;SDS011;24727;51.974;20.868;2023-08-20T06:51:15;18.75;;;16.52;;
38937;SDS011;24727;51.974;20.868;2023-08-20T06:53:45;19.00;;;17.00;;
38937;SDS011;24727;51.974;20.868;2023-08-20T06:56:11;19.20;;;14.70;;
38937;SDS011;24727;51.974;20.868;2023-08-20T06:58:41;13.57;;;12.13;;
38937;SDS011;24727;51.974;20.868;2023-08-20T07:01:08;12.95;;;11.75;;
38937;SDS011;24727;51.974;20.868;2023-08-20T07:06:01;12.90;;;11.55;;
38937;SDS011;24727;51.974;20.868;2023-08-20T07:08:27;13.85;;;11.68;;
38937;SDS011;24727;51.974;20.868;2023-08-20T07:10:54;12.38;;;10.55;;
38937;SDS011;24727;51.974;20.868;2023-08-20T07:13:20;12.20;;;10.90;;
38937;SDS011;24727;51.974;20.868;2023-08-20T07:15:47;11.80;;;10.82;;
38937;SDS011;24727;51.974;20.868;2023-08-20T07:18:13;10.80;;;9.80;;
38937;SDS011;24727;51.974;20.868;2023-08-20T07:20:41;11.27;;;10.13;;
38937;SDS011;24727;51.974;20.868;2023-08-20T07:23:09;13.65;;;10.48;;
38937;SDS011;24727;51.974;20.868;2023-08-20T07:25:36;10.55;;;9.40;;
38937;SDS011;24727;51.974;20.868;2023-08-20T07:28:04;11.75;;;10.60;;
38937;SDS011;24727;51.974;20.868;2023-08-20T07:30:31;11.57;;;10.32;;
38937;SDS011;24727;51.974;20.868;2023-08-20T07:33:00;11.00;;;10.00;;
38937;SDS011;24727;51.974;20.868;2023-08-20T07:35:27;10.85;;;9.75;;
38937;SDS011;24727;51.974;20.868;2023-08-20T07:37:53;11.13;;;10.15;;
38937;SDS011;24727;51.974;20.868;2023-08-20T07:40:19;11.00;;;9.65;;
38937;SDS011;24727;51.974;20.868;2023-08-20T07:42:45;10.85;;;9.48;;
38937;SDS011;24727;51.974;20.868;2023-08-20T07:45:11;10.00;;;8.98;;
38937;SDS011;24727;51.974;20.868;2023-08-20T07:47:38;16.05;;;9.52;;
38937;SDS011;24727;51.974;20.868;2023-08-20T07:50:06;10.32;;;9.43;;
38937;SDS011;24727;51.974;20.868;2023-08-20T07:52:32;9.65;;;8.85;;
38937;SDS011;24727;51.974;20.868;2023-08-20T07:54:58;12.98;;;9.75;;
38937;SDS011;24727;51.974;20.868;2023-08-20T07:57:24;10.35;;;8.98;;
38937;SDS011;24727;51.974;20.868;2023-08-20T07:59:51;12.02;;;9.57;;
38937;SDS011;24727;51.974;20.868;2023-08-20T08:02:18;11.68;;;9.40;;
38937;SDS011;24727;51.974;20.868;2023-08-20T08:04:44;10.13;;;8.85;;
38937;SDS011;24727;51.974;20.868;2023-08-20T08:07:10;11.10;;;9.50;;
38937;SDS011;24727;51.974;20.868;2023-08-20T08:09:36;10.98;;;9.90;;
38937;SDS011;24727;51.974;20.868;2023-08-20T08:12:02;9.00;;;8.30;;
38937;SDS011;24727;51.974;20.868;2023-08-20T08:14:29;12.55;;;8.85;;
38937;SDS011;24727;51.974;20.868;2023-08-20T08:16:55;9.98;;;9.10;;
38937;SDS011;24727;51.974;20.868;2023-08-20T08:19:23;12.32;;;9.35;;
38937;SDS011;24727;51.974;20.868;2023-08-20T08:21:49;9.80;;;8.90;;
38937;SDS011;24727;51.974;20.868;2023-08-20T08:24:16;10.40;;;9.23;;
38937;SDS011;24727;51.974;20.868;2023-08-20T08:26:42;10.65;;;9.63;;
38937;SDS011;24727;51.974;20.868;2023-08-20T08:29:08;8.75;;;7.93;;
38937;SDS011;24727;51.974;20.868;2023-08-20T08:31:34;9.57;;;8.77;;
38937;SDS011;24727;51.974;20.868;2023-08-20T08:34:02;10.68;;;9.60;;
38937;SDS011;24727;51.974;20.868;2023-08-20T08:36:30;9.85;;;8.95;;
38937;SDS011;24727;51.974;20.868;2023-08-20T08:38:57;9.70;;;8.90;;
38937;SDS011;24727;51.974;20.868;2023-08-20T08:41:23;9.88;;;9.07;;
38937;SDS011;24727;51.974;20.868;2023-08-20T08:43:51;10.68;;;9.55;;
38937;SDS011;24727;51.974;20.868;2023-08-20T08:46:19;11.00;;;9.40;;
38937;SDS011;24727;51.974;20.868;2023-08-20T08:48:46;9.38;;;8.57;;
38937;SDS011;24727;51.974;20.868;2023-08-20T08:51:13;10.95;;;9.52;;
38937;SDS011;24727;51.974;20.868;2023-08-20T08:53:39;10.43;;;9.52;;
38937;SDS011;24727;51.974;20.868;2023-08-20T08:56:09;9.65;;;8.85;;
38937;SDS011;24727;51.974;20.868;2023-08-20T08:58:35;11.38;;;8.73;;
38937;SDS011;24727;51.974;20.868;2023-08-20T09:01:01;11.00;;;8.63;;
38937;SDS011;24727;51.974;20.868;2023-08-20T09:03:28;9.43;;;8.52;;
38937;SDS011;24727;51.974;20.868;2023-08-20T09:05:55;9.90;;;8.95;;
38937;SDS011;24727;51.974;20.868;2023-08-20T09:08:30;9.75;;;8.95;;
38937;SDS011;24727;51.974;20.868;2023-08-20T09:10:58;10.25;;;9.13;;
38937;SDS011;24727;51.974;20.868;2023-08-20T09:13:36;9.98;;;8.93;;
38937;SDS011;24727;51.974;20.868;2023-08-20T09:16:04;9.10;;;8.40;;
38937;SDS011;24727;51.974;20.868;2023-08-20T09:18:41;25.25;;;9.15;;
38937;SDS011;24727;51.974;20.868;2023-08-20T09:21:12;9.25;;;8.45;;
38937;SDS011;24727;51.974;20.868;2023-08-20T09:23:39;10.15;;;9.25;;
38937;SDS011;24727;51.974;20.868;2023-08-20T09:26:06;10.30;;;9.40;;
38937;SDS011;24727;51.974;20.868;2023-08-20T09:28:42;10.63;;;9.68;;
38937;SDS011;24727;51.974;20.868;2023-08-20T09:31:09;10.68;;;9.68;;
38937;SDS011;24727;51.974;20.868;2023-08-20T09:33:58;10.07;;;9.10;;
38937;SDS011;24727;51.974;20.868;2023-08-20T09:36:30;11.43;;;10.43;;
38937;SDS011;24727;51.974;20.868;2023-08-20T09:38:58;11.00;;;10.10;;
38937;SDS011;24727;51.974;20.868;2023-08-20T09:41:24;11.70;;;10.70;;
38937;SDS011;24727;51.974;20.868;2023-08-20T09:43:56;10.82;;;9.73;;
38937;SDS011;24727;51.974;20.868;2023-08-20T09:46:26;9.30;;;8.55;;
38937;SDS011;24727;51.974;20.868;2023-08-20T09:48:55;10.43;;;9.50;;
38937;SDS011;24727;51.974;20.868;2023-08-20T09:51:29;11.07;;;10.02;;
38937;SDS011;24727;51.974;20.868;2023-08-20T09:57:05;10.55;;;9.75;;
38937;SDS011;24727;51.974;20.868;2023-08-20T09:59:38;10.60;;;9.70;;
38937;SDS011;24727;51.974;20.868;2023-08-20T10:02:08;11.30;;;10.30;;
38937;SDS011;24727;51.974;20.868;2023-08-20T10:04:39;11.13;;;10.15;;
38937;SDS011;24727;51.974;20.868;2023-08-20T10:07:07;10.07;;;9.23;;
38937;SDS011;24727;51.974;20.868;2023-08-20T10:09:34;11.15;;;10.18;;
38937;SDS011;24727;51.974;20.868;2023-08-20T10:12:00;11.30;;;10.40;;
38937;SDS011;24727;51.974;20.868;2023-08-20T10:14:27;10.20;;;9.30;;
38937;SDS011;24727;51.974;20.868;2023-08-20T10:16:53;11.98;;;10.80;;
38937;SDS011;24727;51.974;20.868;2023-08-20T10:19:21;10.88;;;9.77;;
38937;SDS011;24727;51.974;20.868;2023-08-20T10:21:52;10.40;;;9.50;;
38937;SDS011;24727;51.974;20.868;2023-08-20T10:24:18;10.23;;;9.40;;
38937;SDS011;24727;51.974;20.868;2023-08-20T10:26:48;11.50;;;9.98;;
38937;SDS011;24727;51.974;20.868;2023-08-20T10:29:36;10.70;;;9.60;;
38937;SDS011;24727;51.974;20.868;2023-08-20T10:32:05;9.77;;;8.88;;
38937;SDS011;24727;51.974;20.868;2023-08-20T10:34:38;10.23;;;9.32;;
38937;SDS011;24727;51.974;20.868;2023-08-20T10:39:40;9.65;;;8.85;;
38937;SDS011;24727;51.974;20.868;2023-08-20T10:47:41;10.18;;;9.27;;
38937;SDS011;24727;51.974;20.868;2023-08-20T10:50:10;9.98;;;8.98;;
38937;SDS011;24727;51.974;20.868;2023-08-20T10:52:41;9.73;;;8.93;;
38937;SDS011;24727;51.974;20.868;2023-08-20T10:55:12;9.50;;;8.75;;
38937;SDS011;24727;51.974;20.868;2023-08-20T10:57:40;9.77;;;8.88;;
38937;SDS011;24727;51.974;20.868;2023-08-20T11:00:06;9.50;;;8.70;;
38937;SDS011;24727;51.974;20.868;2023-08-20T11:02:40;9.88;;;8.88;;
38937;SDS011;24727;51.974;20.868;2023-08-20T11:05:15;10.30;;;9.38;;
38937;SDS011;24727;51.974;20.868;2023-08-20T11:07:48;10.27;;;8.77;;
38937;SDS011;24727;51.974;20.868;2023-08-20T11:10:15;11.20;;;9.88;;
38937;SDS011;24727;51.974;20.868;2023-08-20T11:12:43;16.38;;;9.73;;
38937;SDS011;24727;51.974;20.868;2023-08-20T11:15:11;12.35;;;10.05;;
38937;SDS011;24727;51.974;20.868;2023-08-20T11:17:48;11.85;;;10.85;;
38937;SDS011;24727;51.974;20.868;2023-08-20T11:20:15;10.63;;;9.70;;
38937;SDS011;24727;51.974;20.868;2023-08-20T11:22:43;11.88;;;10.32;;
38937;SDS011;24727;51.974;20.868;2023-08-20T11:25:12;11.45;;;9.40;;
38937;SDS011;24727;51.974;20.868;2023-08-20T11:27:45;10.07;;;9.27;;
38937;SDS011;24727;51.974;20.868;2023-08-20T11:30:12;10.57;;;9.43;;
38937;SDS011;24727;51.974;20.868;2023-08-20T11:32:38;11.68;;;9.20;;
38937;SDS011;24727;51.974;20.868;2023-08-20T11:35:05;11.00;;;10.10;;
38937;SDS011;24727;51.974;20.868;2023-08-20T11:37:32;10.25;;;9.35;;
38937;SDS011;24727;51.974;20.868;2023-08-20T11:40:00;10.27;;;9.18;;
38937;SDS011;24727;51.974;20.868;2023-08-20T11:42:27;10.85;;;9.07;;
38937;SDS011;24727;51.974;20.868;2023-08-20T11:44:55;9.98;;;9.18;;
38937;SDS011;24727;51.974;20.868;2023-08-20T11:47:22;10.02;;;9.20;;
38937;SDS011;24727;51.974;20.868;2023-08-20T11:50:01;10.80;;;9.80;;
38937;SDS011;24727;51.974;20.868;2023-08-20T11:52:31;10.65;;;9.68;;
38937;SDS011;24727;51.974;20.868;2023-08-20T11:54:58;10.43;;;9.55;;
38937;SDS011;24727;51.974;20.868;2023-08-20T11:57:26;11.63;;;10.23;;
38937;SDS011;24727;51.974;20.868;2023-08-20T11:59:55;10.52;;;9.52;;
38937;SDS011;24727;51.974;20.868;2023-08-20T12:02:29;10.73;;;9.63;;
38937;SDS011;24727;51.974;20.868;2023-08-20T12:04:56;10.27;;;9.32;;
38937;SDS011;24727;51.974;20.868;2023-08-20T12:07:26;10.25;;;9.40;;
38937;SDS011;24727;51.974;20.868;2023-08-20T12:09:56;10.07;;;9.20;;
38937;SDS011;24727;51.974;20.868;2023-08-20T12:12:22;9.63;;;8.63;;
38937;SDS011;24727;51.974;20.868;2023-08-20T12:14:48;9.55;;;8.75;;
38937;SDS011;24727;51.974;20.868;2023-08-20T12:17:18;10.48;;;9.38;;
38937;SDS011;24727;51.974;20.868;2023-08-20T12:19:44;10.45;;;9.55;;
38937;SDS011;24727;51.974;20.868;2023-08-20T12:22:12;9.63;;;8.93;;
38937;SDS011;24727;51.974;20.868;2023-08-20T12:24:38;9.15;;;8.25;;
38937;SDS011;24727;51.974;20.868;2023-08-20T12:27:04;11.50;;;8.55;;
38937;SDS011;24727;51.974;20.868;2023-08-20T12:29:31;10.00;;;9.10;;
38937;SDS011;24727;51.974;20.868;2023-08-20T12:31:58;9.65;;;8.77;;
38937;SDS011;24727;51.974;20.868;2023-08-20T12:34:24;9.95;;;9.05;;
38937;SDS011;24727;51.974;20.868;2023-08-20T12:36:51;9.23;;;8.20;;
38937;SDS011;24727;51.974;20.868;2023-08-20T12:39:17;10.65;;;9.27;;
38937;SDS011;24727;51.974;20.868;2023-08-20T12:41:43;9.30;;;8.50;;
38937;SDS011;24727;51.974;20.868;2023-08-20T12:44:09;9.38;;;8.68;;
38937;SDS011;24727;51.974;20.868;2023-08-20T12:46:35;9.25;;;8.55;;
38937;SDS011;24727;51.974;20.868;2023-08-20T12:49:01;13.38;;;8.30;;
38937;SDS011;24727;51.974;20.868;2023-08-20T12:51:27;10.32;;;9.32;;
38937;SDS011;24727;51.974;20.868;2023-08-20T12:53:53;9.88;;;8.50;;
38937;SDS011;24727;51.974;20.868;2023-08-20T12:56:21;11.77;;;9.65;;
38937;SDS011;24727;51.974;20.868;2023-08-20T13:01:20;10.57;;;9.20;;
38937;SDS011;24727;51.974;20.868;2023-08-20T13:03:47;10.82;;;9.77;;
38937;SDS011;24727;51.974;20.868;2023-08-20T13:06:16;11.23;;;10.10;;
38937;SDS011;24727;51.974;20.868;2023-08-20T13:08:42;11.32;;;10.32;;
38937;SDS011;24727;51.974;20.868;2023-08-20T13:11:09;11.07;;;10.00;;
38937;SDS011;24727;51.974;20.868;2023-08-20T13:13:42;10.63;;;9.52;;
38937;SDS011;24727;51.974;20.868;2023-08-20T13:16:09;14.15;;;9.93;;
38937;SDS011;24727;51.974;20.868;2023-08-20T13:18:36;11.35;;;10.10;;
38937;SDS011;24727;51.974;20.868;2023-08-20T13:23:37;11.95;;;10.82;;
38937;SDS011;24727;51.974;20.868;2023-08-20T13:26:03;11.68;;;10.57;;
38937;SDS011;24727;51.974;20.868;2023-08-20T13:28:30;11.75;;;10.13;;
38937;SDS011;24727;51.974;20.868;2023-08-20T13:30:57;11.35;;;10.20;;
38937;SDS011;24727;51.974;20.868;2023-08-20T13:33:24;11.43;;;9.13;;
38937;SDS011;24727;51.974;20.868;2023-08-20T13:35:51;9.98;;;8.98;;
38937;SDS011;24727;51.974;20.868;2023-08-20T13:38:18;11.32;;;10.43;;
38937;SDS011;24727;51.974;20.868;2023-08-20T13:40:47;10.63;;;9.70;;
38937;SDS011;24727;51.974;20.868;2023-08-20T13:43:15;10.52;;;9.63;;
38937;SDS011;24727;51.974;20.868;2023-08-20T13:45:41;10.50;;;9.55;;
38937;SDS011;24727;51.974;20.868;2023-08-20T13:48:07;11.02;;;9.93;;
38937;SDS011;24727;51.974;20.868;2023-08-20T13:50:34;10.13;;;9.32;;
38937;SDS011;24727;51.974;20.868;2023-08-20T13:53:00;11.35;;;10.23;;
38937;SDS011;24727;51.974;20.868;2023-08-20T13:55:26;11.80;;;10.50;;
38937;SDS011;24727;51.974;20.868;2023-08-20T13:57:52;11.32;;;9.82;;
38937;SDS011;24727;51.974;20.868;2023-08-20T14:00:18;10.63;;;9.57;;
38937;SDS011;24727;51.974;20.868;2023-08-20T14:02:45;10.75;;;9.70;;
38937;SDS011;24727;51.974;20.868;2023-08-20T14:05:13;11.02;;;10.02;;
38937;SDS011;24727;51.974;20.868;2023-08-20T14:07:39;10.65;;;9.75;;
38937;SDS011;24727;51.974;20.868;2023-08-20T14:10:09;10.55;;;9.55;;
38937;SDS011;24727;51.974;20.868;2023-08-20T14:12:42;10.38;;;9.45;;
38937;SDS011;24727;51.974;20.868;2023-08-20T14:15:08;11.68;;;9.07;;
38937;SDS011;24727;51.974;20.868;2023-08-20T14:17:36;10.43;;;9.52;;
38937;SDS011;24727;51.974;20.868;2023-08-20T14:20:02;10.93;;;10.02;;
38937;SDS011;24727;51.974;20.868;2023-08-20T14:22:29;10.88;;;9.77;;
38937;SDS011;24727;51.974;20.868;2023-08-20T14:24:55;10.98;;;9.57;;
38937;SDS011;24727;51.974;20.868;2023-08-20T14:27:23;10.70;;;9.80;;
38937;SDS011;24727;51.974;20.868;2023-08-20T14:29:49;10.10;;;9.20;;
38937;SDS011;24727;51.974;20.868;2023-08-20T14:32:16;10.98;;;9.75;;
38937;SDS011;24727;51.974;20.868;2023-08-20T14:34:42;9.52;;;8.63;;
38937;SDS011;24727;51.974;20.868;2023-08-20T14:37:09;10.45;;;9.45;;
38937;SDS011;24727;51.974;20.868;2023-08-20T14:39:39;11.50;;;9.68;;
38937;SDS011;24727;51.974;20.868;2023-08-20T14:42:06;10.45;;;9.50;;
38937;SDS011;24727;51.974;20.868;2023-08-20T14:44:32;10.93;;;10.00;;
38937;SDS011;24727;51.974;20.868;2023-08-20T14:46:58;10.68;;;9.77;;